Time,TemperatureF,DewpointF,PressureIn,WindDirection,WindDirectionDegrees,WindSpeedMPH,WindSpeedGustMPH,Humidity,HourlyPrecipIn,Conditions,Clouds,dailyrainin,SoftwareType,DateUTC
2013-01-18 00:00:00,33.8,28.2,30.40,West,270,2.0,2.0,80,0.00,,,1.85,meteohub,2013-01-18 05:00:00,
2013-01-18 00:01:00,33.8,28.2,30.40,West,270,2.0,2.0,80,0.00,,,1.85,meteohub,2013-01-18 05:01:00,
2013-01-18 00:02:00,33.8,28.2,30.40,West,270,2.0,2.0,80,0.00,,,1.85,meteohub,2013-01-18 05:02:00,
2013-01-18 00:03:00,33.8,28.2,30.40,West,270,2.0,2.0,80,0.00,,,1.85,meteohub,2013-01-18 05:03:00,
2013-01-18 00:08:00,33.4,27.9,30.41,NW,315,2.0,2.0,80,0.00,,,0.00,meteohub,2013-01-18 05:08:00,
2013-01-18 00:13:00,33.4,27.9,30.41,NW,315,2.0,2.0,80,0.00,,,0.00,meteohub,2013-01-18 05:13:00,
2013-01-18 00:18:00,33.3,27.7,30.42,NW,315,2.0,2.0,80,0.00,,,0.00,meteohub,2013-01-18 05:18:00,
2013-01-18 00:23:00,33.1,27.9,30.42,NW,315,1.0,2.0,81,0.00,,,0.00,meteohub,2013-01-18 05:23:00,
2013-01-18 00:28:00,32.9,27.7,30.42,WNW,293,2.0,2.0,81,0.00,,,0.00,meteohub,2013-01-18 05:28:00,
2013-01-18 00:33:00,32.7,27.5,30.43,NW,315,2.0,2.0,81,0.00,,,0.00,meteohub,2013-01-18 05:33:00,
2013-01-18 00:38:00,32.5,27.3,30.42,NW,315,2.0,2.0,81,0.00,,,0.00,meteohub,2013-01-18 05:38:00,
2013-01-18 00:43:00,32.4,27.1,30.43,NW,315,2.0,3.0,81,0.00,,,0.00,meteohub,2013-01-18 05:43:00,
2013-01-18 00:48:00,32.2,27.3,30.44,NW,315,2.0,3.0,82,0.00,,,0.00,meteohub,2013-01-18 05:48:00,
2013-01-18 00:53:00,32.0,27.1,30.44,NW,315,0.0,3.0,82,0.00,,,0.00,meteohub,2013-01-18 05:53:00,
2013-01-18 00:58:00,32.0,27.1,30.44,NW,315,0.0,3.0,82,0.00,,,0.00,meteohub,2013-01-18 05:58:00,
2013-01-18 01:04:00,32.0,27.1,30.45,West,270,2.0,2.0,82,0.00,,,0.00,meteohub,2013-01-18 06:04:00,
2013-01-18 01:09:00,31.8,27.0,30.45,NW,315,0.0,2.0,82,0.00,,,0.00,meteohub,2013-01-18 06:09:00,
2013-01-18 01:14:00,31.8,27.0,30.45,NW,315,0.0,2.0,82,0.00,,,0.00,meteohub,2013-01-18 06:14:00,
2013-01-18 01:19:00,31.6,26.8,30.45,NW,315,0.0,2.0,82,0.00,,,0.00,meteohub,2013-01-18 06:19:00,
2013-01-18 01:24:00,31.6,26.8,30.45,North,0,0.0,2.0,82,0.00,,,0.00,meteohub,2013-01-18 06:24:00,
2013-01-18 01:29:00,31.5,26.6,30.45,North,0,0.0,0.0,82,0.00,,,0.00,meteohub,2013-01-18 06:29:00,
2013-01-18 01:34:00,31.5,26.6,30.45,East,90,0.0,2.0,82,0.00,,,0.00,meteohub,2013-01-18 06:34:00,
2013-01-18 01:39:00,31.5,26.6,30.45,East,90,2.0,2.0,82,0.00,,,0.00,meteohub,2013-01-18 06:39:00,
2013-01-18 01:44:00,31.5,26.6,30.46,North,0,1.0,2.0,82,0.00,,,0.00,meteohub,2013-01-18 06:44:00,
2013-01-18 01:49:00,31.5,26.6,30.46,SE,135,2.0,3.0,82,0.00,,,0.00,meteohub,2013-01-18 06:49:00,
2013-01-18 01:54:00,31.3,26.4,30.45,SE,135,0.0,3.0,82,0.00,,,0.00,meteohub,2013-01-18 06:54:00,
2013-01-18 01:59:00,31.1,26.2,30.46,SE,135,0.0,3.0,82,0.00,,,0.00,meteohub,2013-01-18 06:59:00,
2013-01-18 02:05:00,31.1,26.2,30.46,NW,315,0.0,2.0,82,0.00,,,0.00,meteohub,2013-01-18 07:05:00,
2013-01-18 02:10:00,30.9,26.1,30.46,West,270,2.0,2.0,82,0.00,,,0.00,meteohub,2013-01-18 07:10:00,
2013-01-18 02:15:00,30.9,26.1,30.47,West,270,0.0,2.0,82,0.00,,,0.00,meteohub,2013-01-18 07:15:00,
2013-01-18 02:20:00,30.7,26.1,30.47,West,270,0.0,2.0,82,0.00,,,0.00,meteohub,2013-01-18 07:20:00,
2013-01-18 02:25:00,30.7,26.1,30.47,West,270,0.0,2.0,82,0.00,,,0.00,meteohub,2013-01-18 07:25:00,
2013-01-18 02:30:00,30.7,26.1,30.47,NW,315,0.0,2.0,82,0.00,,,0.00,meteohub,2013-01-18 07:30:00,
2013-01-18 02:35:00,30.7,26.1,30.47,NW,315,0.0,2.0,82,0.00,,,0.00,meteohub,2013-01-18 07:35:00,
2013-01-18 02:40:00,30.6,25.9,30.48,North,0,0.0,2.0,82,0.00,,,0.00,meteohub,2013-01-18 07:40:00,
2013-01-18 02:45:00,30.4,25.7,30.48,North,0,0.0,2.0,82,0.00,,,0.00,meteohub,2013-01-18 07:45:00,
2013-01-18 02:50:00,30.2,25.5,30.47,NW,315,0.0,0.0,82,0.00,,,0.00,meteohub,2013-01-18 07:50:00,
2013-01-18 02:55:00,30.2,25.5,30.47,East,90,2.0,2.0,82,0.00,,,0.00,meteohub,2013-01-18 07:55:00,
2013-01-18 03:00:00,30.2,25.5,30.48,East,90,2.0,2.0,82,0.00,,,0.00,meteohub,2013-01-18 08:00:00,
2013-01-18 03:05:00,30.2,25.5,30.48,East,90,2.0,2.0,82,0.00,,,0.00,meteohub,2013-01-18 08:05:00,
2013-01-18 03:11:00,30.4,26.1,30.48,North,0,0.0,2.0,83,0.00,,,0.00,meteohub,2013-01-18 08:11:00,
2013-01-18 03:16:00,30.6,25.9,30.47,East,90,0.0,2.0,82,0.00,,,0.00,meteohub,2013-01-18 08:16:00,
2013-01-18 03:21:00,30.6,26.1,30.48,NE,45,0.0,2.0,83,0.00,,,0.00,meteohub,2013-01-18 08:21:00,
2013-01-18 03:26:00,30.6,26.1,30.48,SW,225,0.0,0.0,83,0.00,,,0.00,meteohub,2013-01-18 08:26:00,
2013-01-18 03:31:00,30.6,26.1,30.48,SW,225,0.0,0.0,83,0.00,,,0.00,meteohub,2013-01-18 08:31:00,
2013-01-18 03:36:00,30.7,26.2,30.48,South,180,0.0,0.0,83,0.00,,,0.00,meteohub,2013-01-18 08:36:00,
2013-01-18 03:41:00,30.7,26.2,30.48,West,270,0.0,0.0,83,0.00,,,0.00,meteohub,2013-01-18 08:41:00,
2013-01-18 03:46:00,30.6,26.1,30.49,West,270,0.0,0.0,83,0.00,,,0.00,meteohub,2013-01-18 08:46:00,
2013-01-18 03:51:00,30.6,26.1,30.49,West,270,0.0,0.0,83,0.00,,,0.00,meteohub,2013-01-18 08:51:00,
2013-01-18 03:56:00,30.4,26.1,30.49,North,0,0.0,0.0,83,0.00,,,0.00,meteohub,2013-01-18 08:56:00,
2013-01-18 04:01:00,30.2,25.9,30.49,North,0,0.0,0.0,83,0.00,,,0.00,meteohub,2013-01-18 09:01:00,
2013-01-18 04:07:00,30.2,25.9,30.49,North,0,0.0,0.0,83,0.00,,,0.00,meteohub,2013-01-18 09:07:00,
2013-01-18 04:12:00,30.2,25.9,30.49,North,0,0.0,0.0,83,0.00,,,0.00,meteohub,2013-01-18 09:12:00,
2013-01-18 04:17:00,30.2,25.9,30.49,NW,315,0.0,0.0,83,0.00,,,0.00,meteohub,2013-01-18 09:17:00,
2013-01-18 04:22:00,30.2,25.9,30.49,NNW,338,0.0,0.0,83,0.00,,,0.00,meteohub,2013-01-18 09:22:00,
2013-01-18 04:27:00,30.0,25.7,30.49,NW,315,0.0,0.0,83,0.00,,,0.00,meteohub,2013-01-18 09:27:00,
2013-01-18 04:32:00,29.8,25.5,30.50,NW,315,0.0,0.0,83,0.00,,,0.00,meteohub,2013-01-18 09:32:00,
2013-01-18 04:37:00,29.8,25.5,30.50,NW,315,0.0,0.0,83,0.00,,,0.00,meteohub,2013-01-18 09:37:00,
2013-01-18 04:42:00,29.7,25.3,30.50,NW,315,0.0,0.0,83,0.00,,,0.00,meteohub,2013-01-18 09:42:00,
2013-01-18 04:47:00,29.5,25.2,30.50,NW,315,0.0,0.0,83,0.00,,,0.00,meteohub,2013-01-18 09:47:00,
2013-01-18 04:52:00,29.1,24.8,30.50,North,0,0.0,0.0,83,0.00,,,0.00,meteohub,2013-01-18 09:52:00,
2013-01-18 04:57:00,29.1,24.8,30.50,North,0,0.0,0.0,83,0.00,,,0.00,meteohub,2013-01-18 09:57:00,
2013-01-18 05:02:00,29.1,24.8,30.50,North,0,0.0,0.0,83,0.00,,,0.00,meteohub,2013-01-18 10:02:00,
2013-01-18 05:07:00,29.1,24.8,30.50,North,0,0.0,0.0,83,0.00,,,0.00,meteohub,2013-01-18 10:07:00,
2013-01-18 05:12:00,29.1,24.8,30.50,North,0,0.0,0.0,83,0.00,,,0.00,meteohub,2013-01-18 10:12:00,
2013-01-18 05:17:00,28.9,24.6,30.51,SE,135,0.0,0.0,83,0.00,,,0.00,meteohub,2013-01-18 10:17:00,
2013-01-18 05:22:00,28.9,24.6,30.51,SE,135,0.0,0.0,83,0.00,,,0.00,meteohub,2013-01-18 10:22:00,
2013-01-18 05:28:00,28.9,24.6,30.51,SE,135,0.0,0.0,83,0.00,,,0.00,meteohub,2013-01-18 10:28:00,
2013-01-18 05:33:00,28.8,24.4,30.51,West,270,0.0,0.0,83,0.00,,,0.00,meteohub,2013-01-18 10:33:00,
2013-01-18 05:38:00,28.8,24.4,30.51,West,270,0.0,0.0,83,0.00,,,0.00,meteohub,2013-01-18 10:38:00,
2013-01-18 05:43:00,28.8,24.4,30.51,West,270,0.0,0.0,83,0.00,,,0.00,meteohub,2013-01-18 10:43:00,
2013-01-18 05:48:00,28.6,24.3,30.52,West,270,0.0,0.0,83,0.00,,,0.00,meteohub,2013-01-18 10:48:00,
2013-01-18 05:53:00,28.6,24.3,30.52,West,270,0.0,0.0,83,0.00,,,0.00,meteohub,2013-01-18 10:53:00,
2013-01-18 05:58:00,28.4,24.1,30.53,West,270,0.0,0.0,83,0.00,,,0.00,meteohub,2013-01-18 10:58:00,
2013-01-18 06:03:00,28.4,24.1,30.52,West,270,0.0,0.0,83,0.00,,,0.00,meteohub,2013-01-18 11:03:00,
2013-01-18 06:08:00,28.4,24.1,30.53,West,270,0.0,0.0,83,0.00,,,0.00,meteohub,2013-01-18 11:08:00,
2013-01-18 06:13:00,28.4,24.1,30.53,West,270,0.0,0.0,83,0.00,,,0.00,meteohub,2013-01-18 11:13:00,
2013-01-18 06:18:00,28.2,23.9,30.53,West,270,0.0,0.0,83,0.00,,,0.00,meteohub,2013-01-18 11:18:00,
2013-01-18 06:23:00,28.0,23.7,30.53,West,270,0.0,0.0,83,0.00,,,0.00,meteohub,2013-01-18 11:23:00,
2013-01-18 06:28:00,28.0,23.7,30.54,West,270,0.0,0.0,83,0.00,,,0.00,meteohub,2013-01-18 11:28:00,
2013-01-18 06:33:00,28.4,24.1,30.53,West,270,0.0,0.0,83,0.00,,,0.00,meteohub,2013-01-18 11:33:00,
2013-01-18 06:38:00,28.4,24.1,30.53,NNW,338,0.0,0.0,83,0.00,,,0.00,meteohub,2013-01-18 11:38:00,
2013-01-18 06:44:00,28.2,23.9,30.53,SE,135,0.0,0.0,83,0.00,,,0.00,meteohub,2013-01-18 11:44:00,
2013-01-18 06:49:00,28.2,23.9,30.53,SE,135,0.0,0.0,83,0.00,,,0.00,meteohub,2013-01-18 11:49:00,
2013-01-18 06:54:00,28.0,23.7,30.54,SE,135,0.0,0.0,83,0.00,,,0.00,meteohub,2013-01-18 11:54:00,
2013-01-18 06:59:00,28.0,23.7,30.54,West,270,0.0,0.0,83,0.00,,,0.00,meteohub,2013-01-18 11:59:00,
2013-01-18 07:04:00,28.0,23.7,30.54,NW,315,0.0,0.0,83,0.00,,,0.00,meteohub,2013-01-18 12:04:00,
2013-01-18 07:09:00,28.0,23.7,30.55,NW,315,0.0,0.0,83,0.00,,,0.00,meteohub,2013-01-18 12:09:00,
2013-01-18 07:14:00,27.9,23.5,30.55,NW,315,0.0,0.0,83,0.00,,,0.00,meteohub,2013-01-18 12:14:00,
2013-01-18 07:19:00,27.9,23.5,30.55,West,270,0.0,0.0,83,0.00,,,0.00,meteohub,2013-01-18 12:19:00,
2013-01-18 07:24:00,28.0,23.7,30.55,West,270,0.0,0.0,83,0.00,,,0.00,meteohub,2013-01-18 12:24:00,
2013-01-18 07:30:00,28.0,23.7,30.55,West,270,0.0,0.0,83,0.00,,,0.00,meteohub,2013-01-18 12:30:00,
2013-01-18 07:35:00,28.0,23.7,30.56,North,0,0.0,0.0,83,0.00,,,0.00,meteohub,2013-01-18 12:35:00,
2013-01-18 07:40:00,28.0,23.7,30.56,NW,315,0.0,0.0,83,0.00,,,0.00,meteohub,2013-01-18 12:40:00,
2013-01-18 07:45:00,27.9,23.5,30.55,NW,315,0.0,0.0,83,0.00,,,0.00,meteohub,2013-01-18 12:45:00,
2013-01-18 07:50:00,27.9,23.5,30.56,NW,315,0.0,0.0,83,0.00,,,0.00,meteohub,2013-01-18 12:50:00,
2013-01-18 07:55:00,27.7,23.4,30.56,NW,315,0.0,0.0,83,0.00,,,0.00,meteohub,2013-01-18 12:55:00,
2013-01-18 08:00:00,27.7,23.4,30.56,NW,315,0.0,0.0,83,0.00,,,0.00,meteohub,2013-01-18 13:00:00,
2013-01-18 08:05:00,27.7,23.4,30.57,NW,315,0.0,0.0,83,0.00,,,0.00,meteohub,2013-01-18 13:05:00,
2013-01-18 08:10:00,27.7,23.4,30.57,NW,315,0.0,0.0,83,0.00,,,0.00,meteohub,2013-01-18 13:10:00,
2013-01-18 08:15:00,27.7,23.7,30.57,North,0,0.0,0.0,84,0.00,,,0.00,meteohub,2013-01-18 13:15:00,
2013-01-18 08:20:00,27.9,23.9,30.58,West,270,0.0,0.0,84,0.00,,,0.00,meteohub,2013-01-18 13:20:00,
2013-01-18 08:26:00,28.2,24.3,30.58,West,270,0.0,0.0,84,0.00,,,0.00,meteohub,2013-01-18 13:26:00,
2013-01-18 08:31:00,29.3,25.3,30.58,West,270,0.0,0.0,84,0.00,,,0.00,meteohub,2013-01-18 13:31:00,
2013-01-18 08:36:00,32.2,28.2,30.58,NW,315,0.0,0.0,85,0.00,,,0.00,meteohub,2013-01-18 13:36:00,
2013-01-18 08:41:00,34.9,31.1,30.57,North,0,0.0,0.0,86,0.00,,,0.00,meteohub,2013-01-18 13:41:00,
2013-01-18 08:46:00,37.9,34.5,30.57,North,0,0.0,0.0,87,0.00,,,0.00,meteohub,2013-01-18 13:46:00,
2013-01-18 08:51:00,40.3,37.2,30.56,NW,315,0.0,0.0,88,0.00,,,0.00,meteohub,2013-01-18 13:51:00,
2013-01-18 08:56:00,40.8,37.2,30.56,North,0,0.0,0.0,86,0.00,,,0.00,meteohub,2013-01-18 13:56:00,
2013-01-18 09:01:00,41.2,36.9,30.57,NW,315,0.0,0.0,84,0.00,,,0.00,meteohub,2013-01-18 14:01:00,
2013-01-18 09:06:00,41.2,36.9,30.57,NW,315,0.0,0.0,84,0.00,,,0.00,meteohub,2013-01-18 14:06:00,
2013-01-18 09:11:00,43.2,37.6,30.57,North,0,0.0,0.0,80,0.00,,,0.00,meteohub,2013-01-18 14:11:00,
2013-01-18 09:16:00,43.2,36.7,30.57,East,90,0.0,0.0,77,0.00,,,0.00,meteohub,2013-01-18 14:16:00,
2013-01-18 09:21:00,43.0,35.1,30.57,East,90,0.0,0.0,73,0.00,,,0.00,meteohub,2013-01-18 14:21:00,
2013-01-18 09:26:00,43.5,34.5,30.57,SE,135,2.0,0.0,70,0.00,,,0.00,meteohub,2013-01-18 14:26:00,
2013-01-18 09:31:00,43.9,33.8,30.57,SE,135,3.0,4.0,67,0.00,,,0.00,meteohub,2013-01-18 14:31:00,
2013-01-18 09:36:00,44.4,34.0,30.57,SE,135,1.0,4.0,66,0.00,,,0.00,meteohub,2013-01-18 14:36:00,
2013-01-18 09:41:00,45.7,34.3,30.57,West,270,1.0,4.0,64,0.00,,,0.00,meteohub,2013-01-18 14:41:00,
2013-01-18 09:46:00,47.1,33.3,30.57,South,180,2.0,3.0,58,0.00,,,0.00,meteohub,2013-01-18 14:46:00,
2013-01-18 09:51:00,47.7,32.0,30.57,SE,135,0.0,3.0,54,0.00,,,0.00,meteohub,2013-01-18 14:51:00,
2013-01-18 09:57:00,48.7,29.1,30.58,SE,135,2.0,3.0,46,0.00,,,0.00,meteohub,2013-01-18 14:57:00,
2013-01-18 10:02:00,48.2,18.5,30.58,West,270,4.0,4.0,30,0.00,,,0.00,meteohub,2013-01-18 15:02:00,
2013-01-18 10:07:00,48.2,18.5,30.58,West,270,4.0,4.0,30,0.00,,,0.00,meteohub,2013-01-18 15:07:00,
2013-01-18 10:12:00,48.7,19.0,30.58,West,270,2.0,4.0,30,0.00,,,0.00,meteohub,2013-01-18 15:12:00,
2013-01-18 10:17:00,49.3,17.1,30.58,West,270,4.0,5.0,27,0.00,,,0.00,meteohub,2013-01-18 15:17:00,
2013-01-18 10:22:00,49.6,13.8,30.58,SE,135,4.0,5.0,23,0.00,,,0.00,meteohub,2013-01-18 15:22:00,
2013-01-18 10:27:00,50.2,11.3,30.58,West,270,3.0,5.0,20,0.00,,,0.00,meteohub,2013-01-18 15:27:00,
2013-01-18 10:32:00,51.4,17.2,30.58,East,90,2.0,4.0,25,0.00,,,0.00,meteohub,2013-01-18 15:32:00,
2013-01-18 10:37:00,52.0,11.7,30.59,NW,315,2.0,4.0,19,0.00,,,0.00,meteohub,2013-01-18 15:37:00,
2013-01-18 10:42:00,52.2,0.0,30.58,West,270,4.0,4.0,11,0.00,,,0.00,meteohub,2013-01-18 15:42:00,
2013-01-18 10:47:00,52.5,0.3,30.59,SW,225,2.0,4.0,11,0.00,,,0.00,meteohub,2013-01-18 15:47:00,
2013-01-18 10:52:00,52.7,52.7,30.59,SE,135,4.0,4.0,0,0.00,,,0.00,meteohub,2013-01-18 15:52:00,
2013-01-18 10:57:00,52.7,52.7,30.58,West,270,3.0,4.0,0,0.00,,,0.00,meteohub,2013-01-18 15:57:00,
2013-01-18 11:02:00,52.5,52.5,30.58,SE,135,2.0,4.0,0,0.00,,,0.00,meteohub,2013-01-18 16:02:00,
2013-01-18 11:07:00,53.1,53.1,30.58,SW,225,5.0,5.0,0,0.00,,,0.00,meteohub,2013-01-18 16:07:00,
2013-01-18 11:12:00,52.9,52.9,30.58,West,270,2.0,5.0,0,0.00,,,0.00,meteohub,2013-01-18 16:12:00,
2013-01-18 11:17:00,53.2,53.2,30.58,NW,315,3.0,5.0,0,0.00,,,0.00,meteohub,2013-01-18 16:17:00,
2013-01-18 11:22:00,54.5,54.5,30.58,SE,135,3.0,5.0,0,0.00,,,0.00,meteohub,2013-01-18 16:22:00,
2013-01-18 11:27:00,55.8,55.8,30.58,NW,315,2.0,4.0,0,0.00,,,0.00,meteohub,2013-01-18 16:27:00,
2013-01-18 11:32:00,56.5,56.5,30.58,SE,135,3.0,4.0,0,0.00,,,0.00,meteohub,2013-01-18 16:32:00,
2013-01-18 11:37:00,55.8,55.8,30.58,East,90,4.0,4.0,0,0.00,,,0.00,meteohub,2013-01-18 16:37:00,
2013-01-18 11:42:00,55.4,55.4,30.57,SE,135,4.0,4.0,0,0.00,,,0.00,meteohub,2013-01-18 16:42:00,
2013-01-18 11:48:00,55.9,55.9,30.57,SE,135,2.0,6.0,0,0.00,,,0.00,meteohub,2013-01-18 16:48:00,
2013-01-18 11:53:00,56.5,56.5,30.56,NE,45,2.0,6.0,0,0.00,,,0.00,meteohub,2013-01-18 16:53:00,
2013-01-18 11:58:00,56.3,56.3,30.57,NE,45,4.0,5.0,0,0.00,,,0.00,meteohub,2013-01-18 16:58:00,
2013-01-18 12:03:00,57.9,57.9,30.56,SE,135,2.0,4.0,0,0.00,,,0.00,meteohub,2013-01-18 17:03:00,
2013-01-18 12:08:00,58.6,58.6,30.56,West,270,4.0,4.0,0,0.00,,,0.00,meteohub,2013-01-18 17:08:00,
2013-01-18 12:13:00,58.5,58.5,30.56,South,180,3.0,4.0,0,0.00,,,0.00,meteohub,2013-01-18 17:13:00,
2013-01-18 12:18:00,58.5,58.5,30.55,SE,135,4.0,4.0,0,0.00,,,0.00,meteohub,2013-01-18 17:18:00,
2013-01-18 12:23:00,59.2,59.2,30.55,SW,225,3.0,4.0,0,0.00,,,0.00,meteohub,2013-01-18 17:23:00,
2013-01-18 12:28:00,59.5,59.5,30.55,SE,135,4.0,4.0,0,0.00,,,0.00,meteohub,2013-01-18 17:28:00,
2013-01-18 12:33:00,57.7,57.7,30.55,SE,135,2.0,6.0,0,0.00,,,0.00,meteohub,2013-01-18 17:33:00,
2013-01-18 12:38:00,58.6,58.6,30.54,East,90,2.0,7.0,0,0.00,,,0.00,meteohub,2013-01-18 17:38:00,
2013-01-18 12:43:00,59.0,59.0,30.54,West,270,3.0,7.0,0,0.00,,,0.00,meteohub,2013-01-18 17:43:00,
2013-01-18 12:48:00,59.7,59.7,30.54,West,270,4.0,7.0,0,0.00,,,0.00,meteohub,2013-01-18 17:48:00,
2013-01-18 12:53:00,59.2,59.2,30.53,West,270,1.0,4.0,0,0.00,,,0.00,meteohub,2013-01-18 17:53:00,
2013-01-18 12:59:00,59.9,59.9,30.54,West,270,3.0,4.0,0,0.00,,,0.00,meteohub,2013-01-18 17:59:00,
2013-01-18 13:04:00,60.1,60.1,30.53,SE,135,3.0,4.0,0,0.00,,,0.00,meteohub,2013-01-18 18:04:00,
2013-01-18 13:09:00,60.1,60.1,30.53,SE,135,4.0,4.0,0,0.00,,,0.00,meteohub,2013-01-18 18:09:00,
2013-01-18 13:14:00,59.2,59.2,30.53,SE,135,2.0,4.0,0,0.00,,,0.00,meteohub,2013-01-18 18:14:00,
2013-01-18 13:19:00,58.5,58.5,30.53,East,90,2.0,7.0,0,0.00,,,0.00,meteohub,2013-01-18 18:19:00,
2013-01-18 13:24:00,58.8,58.8,30.53,South,180,7.0,7.0,0,0.00,,,0.00,meteohub,2013-01-18 18:24:00,
2013-01-18 13:29:00,57.7,57.7,30.53,SE,135,4.0,8.0,0,0.00,,,0.00,meteohub,2013-01-18 18:29:00,
2013-01-18 13:34:00,56.3,56.3,30.53,SE,135,7.0,9.0,0,0.00,,,0.00,meteohub,2013-01-18 18:34:00,
2013-01-18 13:39:00,56.5,56.5,30.53,West,270,2.0,9.0,0,0.00,,,0.00,meteohub,2013-01-18 18:39:00,
2013-01-18 13:44:00,55.9,55.9,30.54,South,180,3.0,9.0,0,0.00,,,0.00,meteohub,2013-01-18 18:44:00,
2013-01-18 13:49:00,55.0,55.0,30.53,SE,135,4.0,8.0,0,0.00,,,0.00,meteohub,2013-01-18 18:49:00,
2013-01-18 13:54:00,54.9,54.9,30.54,South,180,5.0,11.0,0,0.00,,,0.00,meteohub,2013-01-18 18:54:00,
2013-01-18 13:59:00,54.7,54.7,30.54,East,90,7.0,11.0,0,0.00,,,0.00,meteohub,2013-01-18 18:59:00,
2013-01-18 14:04:00,54.5,54.5,30.53,East,90,2.0,11.0,0,0.00,,,0.00,meteohub,2013-01-18 19:04:00,
2013-01-18 14:09:00,54.9,54.9,30.53,North,0,2.0,8.0,0,0.00,,,0.00,meteohub,2013-01-18 19:09:00,
2013-01-18 14:14:00,54.7,54.7,30.53,SE,135,4.0,8.0,0,0.00,,,0.00,meteohub,2013-01-18 19:14:00,
2013-01-18 14:19:00,54.7,54.7,30.53,SE,135,4.0,8.0,0,0.00,,,0.00,meteohub,2013-01-18 19:19:00,
2013-01-18 14:25:00,55.0,55.0,30.53,SE,135,4.0,8.0,0,0.00,,,0.00,meteohub,2013-01-18 19:25:00,
2013-01-18 14:30:00,54.9,54.9,30.53,SE,135,4.0,5.0,0,0.00,,,0.00,meteohub,2013-01-18 19:30:00,
2013-01-18 14:35:00,54.7,54.7,30.54,SW,225,3.0,8.0,0,0.00,,,0.00,meteohub,2013-01-18 19:35:00,
2013-01-18 14:40:00,54.7,54.7,30.54,SE,135,4.0,8.0,0,0.00,,,0.00,meteohub,2013-01-18 19:40:00,
2013-01-18 14:45:00,55.2,55.2,30.53,SE,135,2.0,8.0,0,0.00,,,0.00,meteohub,2013-01-18 19:45:00,
2013-01-18 14:50:00,55.0,55.0,30.53,East,90,5.0,8.0,0,0.00,,,0.00,meteohub,2013-01-18 19:50:00,
2013-01-18 14:55:00,54.7,54.7,30.53,NW,315,2.0,8.0,0,0.00,,,0.00,meteohub,2013-01-18 19:55:00,
2013-01-18 15:00:00,54.5,54.5,30.53,East,90,3.0,5.0,0,0.00,,,0.00,meteohub,2013-01-18 20:00:00,
2013-01-18 15:05:00,54.5,54.5,30.53,East,90,5.0,8.0,0,0.00,,,0.00,meteohub,2013-01-18 20:05:00,
2013-01-18 15:10:00,54.3,54.3,30.53,East,90,8.0,8.0,0,0.00,,,0.00,meteohub,2013-01-18 20:10:00,
2013-01-18 15:15:00,54.7,54.7,30.53,East,90,2.0,8.0,0,0.00,,,0.00,meteohub,2013-01-18 20:15:00,
2013-01-18 15:20:00,54.7,54.7,30.53,SE,135,3.0,8.0,0,0.00,,,0.00,meteohub,2013-01-18 20:20:00,
2013-01-18 15:25:00,54.5,54.5,30.53,SE,135,4.0,5.0,0,0.00,,,0.00,meteohub,2013-01-18 20:25:00,
2013-01-18 15:30:00,54.5,54.5,30.53,SE,135,3.0,6.0,0,0.00,,,0.00,meteohub,2013-01-18 20:30:00,
2013-01-18 15:35:00,54.5,54.5,30.53,West,270,4.0,6.0,0,0.00,,,0.00,meteohub,2013-01-18 20:35:00,
2013-01-18 15:40:00,54.3,54.3,30.53,NW,315,2.0,4.0,0,0.00,,,0.00,meteohub,2013-01-18 20:40:00,
2013-01-18 15:45:00,54.3,54.3,30.53,North,0,2.0,4.0,0,0.00,,,0.00,meteohub,2013-01-18 20:45:00,
2013-01-18 15:50:00,54.3,54.3,30.53,SE,135,2.0,4.0,0,0.00,,,0.00,meteohub,2013-01-18 20:50:00,
2013-01-18 15:56:00,54.3,54.3,30.53,SE,135,5.0,5.0,0,0.00,,,0.00,meteohub,2013-01-18 20:56:00,
2013-01-18 16:01:00,54.1,54.1,30.53,SE,135,5.0,6.0,0,0.00,,,0.00,meteohub,2013-01-18 21:01:00,
2013-01-18 16:06:00,54.0,54.0,30.53,SW,225,3.0,6.0,0,0.00,,,0.00,meteohub,2013-01-18 21:06:00,
2013-01-18 16:11:00,54.0,54.0,30.53,NW,315,3.0,6.0,0,0.00,,,0.00,meteohub,2013-01-18 21:11:00,
2013-01-18 16:16:00,54.0,54.0,30.54,West,270,1.0,6.0,0,0.00,,,0.00,meteohub,2013-01-18 21:16:00,
2013-01-18 16:21:00,54.0,54.0,30.54,North,0,2.0,4.0,0,0.00,,,0.00,meteohub,2013-01-18 21:21:00,
2013-01-18 16:26:00,54.0,54.0,30.54,SE,135,1.0,4.0,0,0.00,,,0.00,meteohub,2013-01-18 21:26:00,
2013-01-18 16:31:00,54.1,54.1,30.54,South,180,4.0,4.0,0,0.00,,,0.00,meteohub,2013-01-18 21:31:00,
2013-01-18 16:36:00,54.0,54.0,30.54,SE,135,3.0,4.0,0,0.00,,,0.00,meteohub,2013-01-18 21:36:00,
2013-01-18 16:41:00,53.2,53.2,30.54,West,270,2.0,4.0,0,0.00,,,0.00,meteohub,2013-01-18 21:41:00,
2013-01-18 16:46:00,53.1,53.1,30.54,SW,225,2.0,4.0,0,0.00,,,0.00,meteohub,2013-01-18 21:46:00,
2013-01-18 16:51:00,52.5,52.5,30.54,NW,315,2.0,3.0,0,0.00,,,0.00,meteohub,2013-01-18 21:51:00,
2013-01-18 16:57:00,52.0,52.0,30.54,West,270,2.0,4.0,0,0.00,,,0.00,meteohub,2013-01-18 21:57:00,
2013-01-18 17:02:00,51.8,51.8,30.54,West,270,2.0,4.0,0,0.00,,,0.00,meteohub,2013-01-18 22:02:00,
2013-01-18 17:07:00,51.8,51.8,30.54,West,270,2.0,4.0,0,0.00,,,0.00,meteohub,2013-01-18 22:07:00,
2013-01-18 17:12:00,50.4,-1.3,30.55,West,270,1.0,3.0,11,0.00,,,0.00,meteohub,2013-01-18 22:12:00,
2013-01-18 17:17:00,49.6,5.7,30.55,West,270,0.0,2.0,16,0.00,,,0.00,meteohub,2013-01-18 22:17:00,
2013-01-18 17:22:00,48.7,6.4,30.55,West,270,1.0,2.0,17,0.00,,,0.00,meteohub,2013-01-18 22:22:00,
2013-01-18 17:27:00,48.0,10.4,30.55,West,270,0.0,1.0,21,0.00,,,0.00,meteohub,2013-01-18 22:27:00,
2013-01-18 17:32:00,47.1,11.7,30.55,West,270,0.0,1.0,23,0.00,,,0.00,meteohub,2013-01-18 22:32:00,
2013-01-18 17:37:00,46.4,13.8,30.56,West,270,0.0,1.0,26,0.00,,,0.00,meteohub,2013-01-18 22:37:00,
2013-01-18 17:42:00,45.9,18.0,30.56,West,270,0.0,0.0,32,0.00,,,0.00,meteohub,2013-01-18 22:42:00,
2013-01-18 17:47:00,45.1,20.8,30.56,West,270,0.0,0.0,37,0.00,,,0.00,meteohub,2013-01-18 22:47:00,
2013-01-18 17:52:00,44.6,23.2,30.56,West,270,0.0,0.0,42,0.00,,,0.00,meteohub,2013-01-18 22:52:00,
2013-01-18 17:57:00,43.7,25.2,30.57,NW,315,0.0,0.0,47,0.00,,,0.00,meteohub,2013-01-18 22:57:00,
2013-01-18 18:02:00,43.5,25.9,30.56,NW,315,0.0,1.0,49,0.00,,,0.00,meteohub,2013-01-18 23:02:00,
2013-01-18 18:07:00,42.8,26.1,30.57,NW,315,2.0,2.0,51,0.00,,,0.00,meteohub,2013-01-18 23:07:00,
2013-01-18 18:12:00,42.1,26.1,30.57,NW,315,1.0,2.0,52,0.00,,,0.00,meteohub,2013-01-18 23:12:00,
2013-01-18 18:17:00,41.5,25.5,30.58,NW,315,0.0,2.0,52,0.00,,,0.00,meteohub,2013-01-18 23:17:00,
2013-01-18 18:22:00,41.2,25.7,30.58,NW,315,0.0,2.0,53,0.00,,,0.00,meteohub,2013-01-18 23:22:00,
2013-01-18 18:27:00,40.8,26.1,30.58,NW,315,0.0,2.0,55,0.00,,,0.00,meteohub,2013-01-18 23:27:00,
2013-01-18 18:32:00,40.3,26.1,30.58,NW,315,0.0,0.0,56,0.00,,,0.00,meteohub,2013-01-18 23:32:00,
2013-01-18 18:37:00,39.7,26.1,30.58,NW,315,0.0,0.0,57,0.00,,,0.00,meteohub,2013-01-18 23:37:00,
2013-01-18 18:42:00,39.4,25.7,30.58,NW,315,0.0,0.0,57,0.00,,,0.00,meteohub,2013-01-18 23:42:00,
2013-01-18 18:47:00,38.8,26.1,30.59,NW,315,0.0,0.0,59,0.00,,,0.00,meteohub,2013-01-18 23:47:00,
2013-01-18 18:52:00,38.3,26.1,30.59,NW,315,0.0,0.0,60,0.00,,,0.00,meteohub,2013-01-18 23:52:00,
2013-01-18 18:58:00,37.9,26.1,30.59,NW,315,0.0,0.0,61,0.00,,,0.00,meteohub,2013-01-18 23:58:00,
2013-01-18 19:03:00,37.9,25.9,30.59,NW,315,0.0,1.0,61,0.00,,,0.00,meteohub,2013-01-19 00:03:00,
2013-01-18 19:08:00,37.4,25.7,30.59,NW,315,0.0,1.0,62,0.00,,,0.00,meteohub,2013-01-19 00:08:00,
2013-01-18 19:13:00,37.0,25.9,30.59,NW,315,0.0,1.0,63,0.00,,,0.00,meteohub,2013-01-19 00:13:00,
2013-01-18 19:18:00,36.9,25.7,30.59,NW,315,0.0,0.0,63,0.00,,,0.00,meteohub,2013-01-19 00:18:00,
2013-01-18 19:23:00,36.5,25.7,30.60,NW,315,0.0,0.0,64,0.00,,,0.00,meteohub,2013-01-19 00:23:00,
2013-01-18 19:28:00,36.3,25.9,30.60,NW,315,0.0,0.0,65,0.00,,,0.00,meteohub,2013-01-19 00:28:00,
2013-01-18 19:33:00,36.0,25.5,30.61,NW,315,0.0,0.0,65,0.00,,,0.00,meteohub,2013-01-19 00:33:00,
2013-01-18 19:38:00,35.8,25.7,30.61,NW,315,0.0,0.0,66,0.00,,,0.00,meteohub,2013-01-19 00:38:00,
2013-01-18 19:43:00,35.4,25.3,30.60,NW,315,0.0,0.0,66,0.00,,,0.00,meteohub,2013-01-19 00:43:00,
2013-01-18 19:48:00,35.2,25.5,30.61,NW,315,0.0,0.0,67,0.00,,,0.00,meteohub,2013-01-19 00:48:00,
2013-01-18 19:53:00,35.1,25.3,30.61,NW,315,0.0,0.0,67,0.00,,,0.00,meteohub,2013-01-19 00:53:00,
2013-01-18 19:58:00,34.7,25.0,30.61,NW,315,0.0,0.0,67,0.00,,,0.00,meteohub,2013-01-19 00:58:00,
2013-01-18 20:03:00,34.7,25.0,30.61,NW,315,0.0,0.0,67,0.00,,,0.00,meteohub,2013-01-19 01:03:00,
2013-01-18 20:08:00,34.3,24.6,30.61,NW,315,0.0,0.0,67,0.00,,,0.00,meteohub,2013-01-19 01:08:00,
2013-01-18 20:13:00,34.0,24.8,30.62,NW,315,0.0,0.0,68,0.00,,,0.00,meteohub,2013-01-19 01:13:00,
2013-01-18 20:19:00,34.0,24.8,30.61,NW,315,0.0,0.0,68,0.00,,,0.00,meteohub,2013-01-19 01:19:00,
2013-01-18 20:24:00,33.6,24.8,30.61,NW,315,0.0,0.0,69,0.00,,,0.00,meteohub,2013-01-19 01:24:00,
2013-01-18 20:29:00,33.4,24.3,30.62,NW,315,0.0,0.0,68,0.00,,,0.00,meteohub,2013-01-19 01:29:00,
2013-01-18 20:34:00,33.3,24.4,30.61,NW,315,0.0,0.0,69,0.00,,,0.00,meteohub,2013-01-19 01:34:00,
2013-01-18 20:39:00,33.1,24.3,30.62,NW,315,0.0,0.0,69,0.00,,,0.00,meteohub,2013-01-19 01:39:00,
2013-01-18 20:44:00,32.9,24.4,30.62,NW,315,0.0,0.0,70,0.00,,,0.00,meteohub,2013-01-19 01:44:00,
2013-01-18 20:49:00,32.7,24.3,30.62,NW,315,0.0,0.0,70,0.00,,,0.00,meteohub,2013-01-19 01:49:00,
2013-01-18 20:54:00,32.7,24.3,30.62,NW,315,0.0,0.0,70,0.00,,,0.00,meteohub,2013-01-19 01:54:00,
2013-01-18 20:59:00,32.5,24.1,30.63,NW,315,0.0,0.0,70,0.00,,,0.00,meteohub,2013-01-19 01:59:00,
2013-01-18 21:04:00,32.5,24.1,30.63,NW,315,0.0,0.0,70,0.00,,,0.00,meteohub,2013-01-19 02:04:00,
2013-01-18 21:09:00,32.0,23.5,30.63,NW,315,0.0,0.0,70,0.00,,,0.00,meteohub,2013-01-19 02:09:00,
2013-01-18 21:14:00,32.0,23.5,30.63,NW,315,0.0,0.0,70,0.00,,,0.00,meteohub,2013-01-19 02:14:00,
2013-01-18 21:19:00,32.0,23.9,30.63,NW,315,0.0,0.0,71,0.00,,,0.00,meteohub,2013-01-19 02:19:00,
2013-01-18 21:24:00,31.6,23.5,30.64,NW,315,0.0,0.0,71,0.00,,,0.00,meteohub,2013-01-19 02:24:00,
2013-01-18 21:29:00,31.5,23.4,30.64,NW,315,0.0,0.0,71,0.00,,,0.00,meteohub,2013-01-19 02:29:00,
2013-01-18 21:34:00,31.3,23.2,30.63,NW,315,0.0,0.0,71,0.00,,,0.00,meteohub,2013-01-19 02:34:00,
2013-01-18 21:40:00,31.3,23.5,30.63,NW,315,0.0,0.0,72,0.00,,,0.00,meteohub,2013-01-19 02:40:00,
2013-01-18 21:45:00,31.1,23.4,30.63,NW,315,0.0,0.0,72,0.00,,,0.00,meteohub,2013-01-19 02:45:00,
2013-01-18 21:50:00,31.1,23.4,30.63,NW,315,0.0,0.0,72,0.00,,,0.00,meteohub,2013-01-19 02:50:00,
2013-01-18 21:55:00,30.7,23.0,30.63,NW,315,0.0,0.0,72,0.00,,,0.00,meteohub,2013-01-19 02:55:00,
2013-01-18 22:00:00,30.6,22.8,30.63,NW,315,0.0,0.0,72,0.00,,,0.00,meteohub,2013-01-19 03:00:00,
2013-01-18 22:05:00,30.6,22.8,30.63,NW,315,0.0,0.0,72,0.00,,,0.00,meteohub,2013-01-19 03:05:00,
2013-01-18 22:10:00,30.2,22.5,30.63,NW,315,0.0,0.0,72,0.00,,,0.00,meteohub,2013-01-19 03:10:00,
2013-01-18 22:15:00,30.2,22.5,30.63,NW,315,0.0,0.0,72,0.00,,,0.00,meteohub,2013-01-19 03:15:00,
2013-01-18 22:20:00,30.0,22.3,30.63,NW,315,0.0,0.0,72,0.00,,,0.00,meteohub,2013-01-19 03:20:00,
2013-01-18 22:25:00,29.8,22.5,30.63,NW,315,0.0,0.0,73,0.00,,,0.00,meteohub,2013-01-19 03:25:00,
2013-01-18 22:30:00,29.8,22.5,30.63,NW,315,0.0,0.0,73,0.00,,,0.00,meteohub,2013-01-19 03:30:00,
2013-01-18 22:35:00,29.7,22.3,30.62,NW,315,0.0,0.0,73,0.00,,,0.00,meteohub,2013-01-19 03:35:00,
2013-01-18 22:40:00,29.7,22.3,30.62,NW,315,0.0,0.0,73,0.00,,,0.00,meteohub,2013-01-19 03:40:00,
2013-01-18 22:45:00,29.7,22.3,30.63,NW,315,0.0,0.0,73,0.00,,,0.00,meteohub,2013-01-19 03:45:00,
2013-01-18 22:50:00,29.5,22.1,30.63,NW,315,0.0,0.0,73,0.00,,,0.00,meteohub,2013-01-19 03:50:00,
2013-01-18 22:55:00,29.1,21.7,30.62,NW,315,0.0,0.0,73,0.00,,,0.00,meteohub,2013-01-19 03:55:00,
2013-01-18 23:01:00,29.1,21.7,30.62,NW,315,0.0,0.0,73,0.00,,,0.00,meteohub,2013-01-19 04:01:00,
2013-01-18 23:06:00,29.1,21.7,30.62,NW,315,0.0,0.0,73,0.00,,,0.00,meteohub,2013-01-19 04:06:00,
2013-01-18 23:11:00,29.1,21.7,30.62,NW,315,0.0,0.0,73,0.00,,,0.00,meteohub,2013-01-19 04:11:00,
2013-01-18 23:16:00,29.1,21.7,30.62,NW,315,0.0,0.0,73,0.00,,,0.00,meteohub,2013-01-19 04:16:00,
2013-01-18 23:21:00,28.9,21.6,30.62,NW,315,0.0,0.0,73,0.00,,,0.00,meteohub,2013-01-19 04:21:00,
2013-01-18 23:26:00,28.9,21.6,30.62,NW,315,0.0,0.0,73,0.00,,,0.00,meteohub,2013-01-19 04:26:00,
2013-01-18 23:32:00,28.8,21.4,30.62,NW,315,0.0,0.0,73,0.00,,,0.00,meteohub,2013-01-19 04:32:00,
2013-01-18 23:37:00,28.8,21.4,30.62,NW,315,0.0,0.0,73,0.00,,,0.00,meteohub,2013-01-19 04:37:00,
2013-01-18 23:42:00,28.8,21.4,30.61,NW,315,0.0,0.0,73,0.00,,,0.00,meteohub,2013-01-19 04:42:00,
2013-01-18 23:47:00,28.8,21.4,30.61,NW,315,0.0,0.0,73,0.00,,,0.00,meteohub,2013-01-19 04:47:00,
2013-01-18 23:52:00,28.8,21.7,30.61,NW,315,0.0,0.0,74,0.00,,,0.00,meteohub,2013-01-19 04:52:00,
2013-01-18 23:57:00,28.8,21.7,30.62,NW,315,0.0,0.0,74,0.00,,,0.00,meteohub,2013-01-19 04:57:00,